createdAt,value
2022-09-20T00:01:27.221Z,96.40
2022-09-20T00:04:29.373Z,96.50
2022-09-20T00:07:31.365Z,96.40
2022-09-20T00:10:38.096Z,96.40
2022-09-20T00:13:40.533Z,96.20
2022-09-20T00:16:42.664Z,96.30
2022-09-20T00:19:44.816Z,96.20
2022-09-20T00:22:50.693Z,96.30
2022-09-20T00:26:03.721Z,96.30
2022-09-20T00:29:06.278Z,96.40
2022-09-20T00:32:08.515Z,96.20
2022-09-20T00:35:13.274Z,96.30
2022-09-20T00:38:16.380Z,96.30
2022-09-20T00:41:18.459Z,96.20
2022-09-20T00:44:49.533Z,96.20
2022-09-20T00:47:57.524Z,96.00
2022-09-20T00:51:07.168Z,95.90
2022-09-20T00:54:18.197Z,96.10
2022-09-20T00:57:22.533Z,96.10
2022-09-20T01:00:27.111Z,96.20
2022-09-20T01:03:31.517Z,96.20
2022-09-20T01:06:35.761Z,96.20
2022-09-20T01:09:37.845Z,96.20
2022-09-20T01:12:40.816Z,96.30
2022-09-20T01:15:44.532Z,96.30
2022-09-20T01:18:48.267Z,96.30
2022-09-20T01:21:51.393Z,96.30
2022-09-20T01:25:30.193Z,96.40
2022-09-20T01:28:33.125Z,96.50
2022-09-20T01:31:40.989Z,96.60
2022-09-20T01:34:48.954Z,96.70
2022-09-20T01:38:11.227Z,96.80
2022-09-20T01:41:17.872Z,96.90
2022-09-20T01:44:45.421Z,96.90
2022-09-20T01:48:02.279Z,97.00
2022-09-20T01:51:24.320Z,97.10
2022-09-20T01:54:32.160Z,97.20
2022-09-20T01:57:58.028Z,97.00
2022-09-20T02:01:18.660Z,97.00
2022-09-20T02:04:35.582Z,97.00
2022-09-20T02:08:11.546Z,96.90
2022-09-20T02:11:23.440Z,96.90
2022-09-20T02:14:41.937Z,96.80
2022-09-20T02:18:14.632Z,96.70
2022-09-20T02:21:30.430Z,96.70
2022-09-20T02:25:00.538Z,96.60
2022-09-20T02:28:02.563Z,96.50
2022-09-20T02:31:26.277Z,96.50
2022-09-20T02:34:49.496Z,96.50
2022-09-20T02:38:00.188Z,96.40
2022-09-20T02:41:08.037Z,96.40
2022-09-20T02:44:15.785Z,96.30
2022-09-20T02:47:37.407Z,96.30
2022-09-20T02:50:51.585Z,96.20
2022-09-20T02:54:17.302Z,96.30
2022-09-20T02:57:26.943Z,96.30
2022-09-20T03:00:44.770Z,96.30
2022-09-20T03:04:14.619Z,96.70
2022-09-20T03:07:37.545Z,96.30
2022-09-20T03:10:55.364Z,96.30
2022-09-20T03:14:23.259Z,96.30
2022-09-20T03:18:02.560Z,96.30
2022-09-20T03:21:35.211Z,96.40
2022-09-20T03:25:28.973Z,96.30
2022-09-20T03:28:58.373Z,96.30
2022-09-20T03:32:13.601Z,96.20
2022-09-20T03:35:27.669Z,96.10
2022-09-20T03:38:32.789Z,96.00
2022-09-20T03:41:43.555Z,95.90
2022-09-20T03:45:04.103Z,96.00
2022-09-20T03:48:31.748Z,95.60
2022-09-20T03:51:55.447Z,95.80
2022-09-20T03:55:14.235Z,95.70
2022-09-20T03:58:16.247Z,95.70
2022-09-20T04:01:47.157Z,95.60
2022-09-20T04:05:09.695Z,95.50
2022-09-20T04:08:29.886Z,95.50
2022-09-20T04:11:44.529Z,95.50
2022-09-20T04:18:56.666Z,95.40
2022-09-20T04:22:00.677Z,95.40
2022-09-20T04:25:13.474Z,95.10
2022-09-20T04:28:26.143Z,95.40
2022-09-20T04:31:37.377Z,95.50
2022-09-20T04:35:07.143Z,95.40
2022-09-20T04:38:14.956Z,95.40
2022-09-20T04:41:50.005Z,95.50
2022-09-20T04:45:27.343Z,95.60
2022-09-20T04:49:03.469Z,95.50
2022-09-20T04:52:29.520Z,95.50
2022-09-20T04:55:52.328Z,95.60
2022-09-20T04:59:07.880Z,95.70
2022-09-20T05:02:47.583Z,95.70
2022-09-20T05:06:14.485Z,95.80
2022-09-20T05:09:43.011Z,95.80
2022-09-20T05:13:05.414Z,95.80
2022-09-20T05:16:27.789Z,95.90
2022-09-20T05:19:55.947Z,95.90
2022-09-20T05:23:16.822Z,95.80
2022-09-20T05:26:24.965Z,95.80
2022-09-20T05:29:38.113Z,95.90
2022-09-20T05:33:10.630Z,95.90
2022-09-20T05:36:47.168Z,95.90
2022-09-20T05:40:13.224Z,95.90
2022-09-20T05:43:31.758Z,96.00
2022-09-20T05:46:46.366Z,96.00
2022-09-20T05:50:25.721Z,96.00
2022-09-20T05:53:54.723Z,95.90
2022-09-20T05:57:25.242Z,95.90
2022-09-20T06:00:34.429Z,95.90
2022-09-20T06:03:55.909Z,95.90
2022-09-20T06:07:17.427Z,95.90
2022-09-20T06:10:41.333Z,95.90
2022-09-20T06:13:50.011Z,96.00
2022-09-20T06:17:20.348Z,95.90
2022-09-20T06:20:47.749Z,95.90
2022-09-20T06:23:50.019Z,95.80
2022-09-20T06:26:55.466Z,95.70
2022-09-20T06:30:07.299Z,95.70
2022-09-20T06:33:25.511Z,95.70
2022-09-20T06:36:55.267Z,95.60
2022-09-20T06:40:56.997Z,95.50
2022-09-20T06:44:03.591Z,95.50
2022-09-20T06:47:08.634Z,95.50
2022-09-20T06:50:17.430Z,95.40
2022-09-20T06:53:35.177Z,95.00
2022-09-20T06:56:38.562Z,94.90
2022-09-20T06:59:40.623Z,94.70
2022-09-20T07:02:43.703Z,94.10
2022-09-20T07:05:47.094Z,93.60
2022-09-20T07:08:49.176Z,92.70
2022-09-20T07:11:51.419Z,92.00
2022-09-20T07:14:54.300Z,91.40
2022-09-20T07:17:56.754Z,90.60
2022-09-20T07:20:58.957Z,88.50
2022-09-20T07:24:02.052Z,87.40
2022-09-20T07:27:05.402Z,84.20
2022-09-20T07:30:08.425Z,81.60
2022-09-20T07:33:12.166Z,80.40
2022-09-20T07:36:14.290Z,79.40
2022-09-20T07:39:17.208Z,78.60
2022-09-20T07:42:19.306Z,76.90
2022-09-20T07:45:21.525Z,75.70
2022-09-20T07:48:26.969Z,74.70
2022-09-20T07:51:29.272Z,73.20
2022-09-20T07:54:31.381Z,72.60
2022-09-20T07:57:40.264Z,72.90
2022-09-20T08:00:42.280Z,68.80
2022-09-20T08:03:45.272Z,68.10
2022-09-20T08:06:47.476Z,67.60
2022-09-20T08:09:49.662Z,66.40
2022-09-20T08:16:15.055Z,63.10
2022-09-20T08:19:19.394Z,63.60
2022-09-20T08:22:22.274Z,60.60
2022-09-20T08:25:24.215Z,60.20
2022-09-20T08:28:26.277Z,59.50
2022-09-20T08:31:34.453Z,58.50
2022-09-20T08:34:37.062Z,58.00
2022-09-20T08:37:39.384Z,55.90
2022-09-20T08:40:41.509Z,53.00
2022-09-20T08:43:52.181Z,53.30
2022-09-20T08:47:20.548Z,52.40
2022-09-20T08:50:23.051Z,51.00
2022-09-20T08:53:29.224Z,51.00
2022-09-20T08:56:37.616Z,48.90
2022-09-20T08:59:41.204Z,49.60
2022-09-20T09:02:43.446Z,49.00
2022-09-20T09:05:52.886Z,46.30
2022-09-20T09:08:58.632Z,46.00
2022-09-20T09:12:00.775Z,47.00
2022-09-20T09:15:30.317Z,46.80
2022-09-20T09:18:41.816Z,47.20
2022-09-20T09:21:44.064Z,46.50
2022-09-20T09:24:46.470Z,50.80
2022-09-20T09:27:57.734Z,45.50
2022-09-20T09:31:35.850Z,43.70
2022-09-20T09:34:40.828Z,44.00
2022-09-20T09:38:02.329Z,43.40
2022-09-20T09:41:08.578Z,43.60
2022-09-20T09:44:23.554Z,42.80
2022-09-20T09:47:29.556Z,41.00
2022-09-20T09:50:33.970Z,42.40
2022-09-20T09:53:37.410Z,38.80
2022-09-20T09:57:02.647Z,40.60
2022-09-20T10:00:20.730Z,42.00
2022-09-20T10:03:42.994Z,42.00
2022-09-20T10:07:20.057Z,40.40
2022-09-20T10:10:33.004Z,40.60
2022-09-20T10:13:52.448Z,42.70
2022-09-20T10:17:14.657Z,39.30
2022-09-20T10:20:22.703Z,41.30
2022-09-20T10:24:03.221Z,39.60
2022-09-20T10:27:40.977Z,39.00
2022-09-20T10:31:01.918Z,40.00
2022-09-20T10:34:35.819Z,39.40
2022-09-20T10:37:59.832Z,36.70
2022-09-20T10:41:32.139Z,37.40
2022-09-20T10:44:51.345Z,34.60
2022-09-20T10:48:07.521Z,37.30
2022-09-20T10:51:30.543Z,37.80
2022-09-20T10:55:06.675Z,40.50
2022-09-20T10:58:52.193Z,39.00
2022-09-20T11:02:03.233Z,39.50
2022-09-20T11:05:33.219Z,41.40
2022-09-20T11:08:38.456Z,40.20
2022-09-20T11:11:49.126Z,40.70
2022-09-20T11:14:59.785Z,41.20
2022-09-20T11:18:39.221Z,41.50
2022-09-20T11:22:00.427Z,41.40
2022-09-20T11:25:39.951Z,41.40
2022-09-20T11:28:52.486Z,42.70
2022-09-20T11:32:21.444Z,41.20
2022-09-20T11:35:35.392Z,42.40
2022-09-20T11:38:54.533Z,45.40
2022-09-20T11:42:00.592Z,47.80
2022-09-20T11:45:03.499Z,48.10
2022-09-20T11:48:15.855Z,50.70
2022-09-20T11:51:36.323Z,52.60
2022-09-20T11:55:00.224Z,54.20
2022-09-20T11:58:03.475Z,54.80
2022-09-20T12:01:13.552Z,56.00
2022-09-20T12:04:32.522Z,59.00
2022-09-20T12:07:44.426Z,60.80
2022-09-20T12:11:04.278Z,61.00
2022-09-20T12:14:22.048Z,61.50
2022-09-20T12:17:45.884Z,62.80
2022-09-20T12:20:51.537Z,62.60
2022-09-20T12:23:53.658Z,63.10
2022-09-20T12:27:41.357Z,64.10
2022-09-20T12:30:43.546Z,64.00
2022-09-20T12:34:16.028Z,64.20
2022-09-20T12:37:24.214Z,62.90
2022-09-20T12:40:26.374Z,63.10
2022-09-20T12:43:31.068Z,63.50
2022-09-20T12:46:37.240Z,64.10
2022-09-20T12:50:06.660Z,63.60
2022-09-20T12:53:16.846Z,64.20
2022-09-20T12:56:23.450Z,64.20
2022-09-20T12:59:31.196Z,64.30
2022-09-20T13:03:11.626Z,65.20
2022-09-20T13:06:17.847Z,65.30
2022-09-20T13:09:21.496Z,64.90
2022-09-20T13:12:23.655Z,64.80
2022-09-20T13:15:26.428Z,65.40
2022-09-20T13:18:29.589Z,66.00
2022-09-20T13:21:33.094Z,65.60
2022-09-20T13:24:41.813Z,65.80
2022-09-20T13:27:58.054Z,66.10
2022-09-20T13:31:29.035Z,66.10
2022-09-20T13:34:31.676Z,66.80
2022-09-20T13:37:35.155Z,68.20
2022-09-20T13:40:39.330Z,68.40
2022-09-20T13:43:43.786Z,68.20
2022-09-20T13:46:46.202Z,67.70
2022-09-20T13:49:48.349Z,67.30
2022-09-20T13:52:53.465Z,66.70
2022-09-20T13:55:56.090Z,66.40
2022-09-20T13:59:05.351Z,66.00
2022-09-20T14:02:24.201Z,66.00
2022-09-20T14:05:29.080Z,66.10
2022-09-20T14:08:39.140Z,65.30
2022-09-20T14:11:43.543Z,66.10
2022-09-20T14:14:46.888Z,65.30
2022-09-20T14:17:49.229Z,64.80
2022-09-20T14:20:53.330Z,64.80
2022-09-20T14:24:00.773Z,65.40
2022-09-20T14:27:21.094Z,64.60
2022-09-20T14:30:32.424Z,65.50
2022-09-20T14:33:40.633Z,65.90
2022-09-20T14:36:50.079Z,66.00
2022-09-20T14:40:01.596Z,66.40
2022-09-20T14:43:21.479Z,65.70
2022-09-20T14:46:36.493Z,66.70
2022-09-20T14:49:42.978Z,67.30
2022-09-20T14:52:46.343Z,66.60
2022-09-20T14:56:08.377Z,65.60
2022-09-20T14:59:19.090Z,65.30
2022-09-20T15:02:21.607Z,65.20
2022-09-20T15:05:28.216Z,64.80
2022-09-20T15:08:30.353Z,64.50
2022-09-20T15:11:32.615Z,64.20
2022-09-20T15:14:37.824Z,63.80
2022-09-20T15:17:41.663Z,63.00
2022-09-20T15:20:43.739Z,63.10
2022-09-20T15:23:45.834Z,62.60
2022-09-20T15:26:47.993Z,62.70
2022-09-20T15:29:50.045Z,62.70
2022-09-20T15:32:53.205Z,62.70
2022-09-20T15:35:55.270Z,62.60
2022-09-20T15:38:57.494Z,62.80
2022-09-20T15:41:59.660Z,62.90
2022-09-20T15:45:01.633Z,62.90
2022-09-20T15:48:04.187Z,63.00
2022-09-20T15:51:08.990Z,62.90
2022-09-20T15:54:14.251Z,62.70
2022-09-20T15:57:16.318Z,62.60
2022-09-20T16:00:18.526Z,63.10
2022-09-20T16:03:20.748Z,63.60
2022-09-20T16:06:24.230Z,63.80
2022-09-20T16:09:26.263Z,64.50
2022-09-20T16:12:28.339Z,65.10
2022-09-20T16:15:30.473Z,65.40
2022-09-20T16:18:51.651Z,65.60
2022-09-20T16:21:58.915Z,65.60
2022-09-20T16:25:01.587Z,64.80
2022-09-20T16:28:03.775Z,65.40
2022-09-20T16:31:05.940Z,64.60
2022-09-20T16:34:11.908Z,65.00
2022-09-20T16:37:17.376Z,65.20
2022-09-20T16:40:19.420Z,65.30
2022-09-20T16:43:26.441Z,65.10
2022-09-20T16:46:28.730Z,65.20
2022-09-20T16:49:30.727Z,65.10
2022-09-20T16:52:32.717Z,66.30
2022-09-20T16:55:36.012Z,66.80
2022-09-20T16:58:38.095Z,67.50
2022-09-20T17:01:41.040Z,66.60
2022-09-20T17:04:43.792Z,66.70
2022-09-20T17:07:46.997Z,67.10
2022-09-20T17:10:52.320Z,68.00
2022-09-20T17:13:55.842Z,67.60
2022-09-20T17:16:57.825Z,67.80
2022-09-20T17:20:05.338Z,67.00
2022-09-20T17:23:09.321Z,67.80
2022-09-20T17:26:15.053Z,67.90
2022-09-20T17:29:19.156Z,67.20
2022-09-20T17:32:21.238Z,67.60
2022-09-20T17:35:23.402Z,67.60
2022-09-20T17:38:25.891Z,67.10
2022-09-20T17:41:29.059Z,68.60
2022-09-20T17:44:35.179Z,67.90
2022-09-20T17:47:37.252Z,68.70
2022-09-20T17:50:39.246Z,69.10
2022-09-20T17:53:41.276Z,70.60
2022-09-20T17:56:46.404Z,70.80
2022-09-20T17:59:48.465Z,72.00
2022-09-20T18:02:52.467Z,73.10
2022-09-20T18:05:54.569Z,74.70
2022-09-20T18:08:59.284Z,75.20
2022-09-20T18:12:02.408Z,76.30
2022-09-20T18:15:06.201Z,75.60
2022-09-20T18:18:08.428Z,76.90
2022-09-20T18:21:15.674Z,77.30
2022-09-20T18:24:17.746Z,78.20
2022-09-20T18:27:20.810Z,78.50
2022-09-20T18:30:22.822Z,78.10
2022-09-20T18:33:25.279Z,78.80
2022-09-20T18:36:31.777Z,79.10
2022-09-20T18:39:35.011Z,79.10
2022-09-20T18:42:37.164Z,77.80
2022-09-20T18:45:39.138Z,77.90
2022-09-20T18:48:41.355Z,78.40
2022-09-20T18:51:44.674Z,79.90
2022-09-20T18:54:47.155Z,79.50
2022-09-20T18:57:49.682Z,79.40
2022-09-20T19:01:22.745Z,80.10
2022-09-20T19:04:58.702Z,80.00
2022-09-20T19:08:26.457Z,80.10
2022-09-20T19:11:37.358Z,79.60
2022-09-20T19:14:48.310Z,79.90
2022-09-20T19:18:11.250Z,79.90
2022-09-20T19:21:31.629Z,80.50
2022-09-20T19:25:18.254Z,80.60
2022-09-20T19:28:20.540Z,80.30
2022-09-20T19:31:28.379Z,80.70
2022-09-20T19:34:34.848Z,80.10
2022-09-20T19:38:15.695Z,80.40
2022-09-20T19:41:26.706Z,80.60
2022-09-20T19:44:50.444Z,80.30
2022-09-20T19:48:01.154Z,79.80
2022-09-20T19:51:08.145Z,80.00
2022-09-20T19:54:12.452Z,80.60
2022-09-20T19:57:20.302Z,80.50
2022-09-20T20:00:23.049Z,81.10
2022-09-20T20:03:27.521Z,81.10
2022-09-20T20:06:32.554Z,81.20
2022-09-20T20:09:43.901Z,81.50
2022-09-20T20:13:29.792Z,81.30
2022-09-20T20:16:59.492Z,80.80
2022-09-20T20:20:16.796Z,81.00
2022-09-20T20:23:56.494Z,80.40
2022-09-20T20:26:58.597Z,80.20
2022-09-20T20:30:00.646Z,79.80
2022-09-20T20:33:05.250Z,80.40
2022-09-20T20:36:11.823Z,79.90
2022-09-20T20:39:14.186Z,79.90
2022-09-20T20:42:16.382Z,79.80
2022-09-20T20:45:19.787Z,79.80
2022-09-20T20:48:22.042Z,79.50
2022-09-20T20:51:24.916Z,80.10
2022-09-20T20:54:27.012Z,79.90
2022-09-20T20:57:29.857Z,80.70
2022-09-20T21:00:31.884Z,81.30
2022-09-20T21:03:34.594Z,82.70
2022-09-20T21:06:38.293Z,82.90
2022-09-20T21:09:40.312Z,84.10
2022-09-20T21:12:42.411Z,83.80
2022-09-20T21:15:44.803Z,85.10
2022-09-20T21:18:48.491Z,85.80
2022-09-20T21:21:50.580Z,86.10
2022-09-20T21:24:53.194Z,85.50
2022-09-20T21:27:55.361Z,85.20
2022-09-20T21:31:02.793Z,84.80
2022-09-20T21:34:08.474Z,87.70
2022-09-20T21:37:10.682Z,88.60
2022-09-20T21:40:12.953Z,88.50
2022-09-20T21:43:15.248Z,87.90
2022-09-20T21:46:19.272Z,87.90
2022-09-20T21:49:22.312Z,88.60
2022-09-20T21:52:24.401Z,88.90
2022-09-20T21:55:26.797Z,89.00
2022-09-20T21:58:29.360Z,89.30
2022-09-20T22:01:36.241Z,88.80
2022-09-20T22:04:38.327Z,88.70
2022-09-20T22:07:40.371Z,88.70
2022-09-20T22:10:42.413Z,86.40
2022-09-20T22:13:46.590Z,86.00
2022-09-20T22:16:51.396Z,85.80
2022-09-20T22:19:54.086Z,85.50
2022-09-20T22:22:56.611Z,85.90
2022-09-20T22:26:00.289Z,86.10
2022-09-20T22:29:02.659Z,86.00
2022-09-20T22:32:04.875Z,86.00
2022-09-20T22:35:07.236Z,85.60
2022-09-20T22:38:09.362Z,85.80
2022-09-20T22:41:13.077Z,86.20
2022-09-20T22:44:15.205Z,86.40
2022-09-20T22:47:17.190Z,86.40
2022-09-20T22:50:19.273Z,86.50
2022-09-20T22:53:21.504Z,86.40
2022-09-20T22:56:28.670Z,86.50
2022-09-20T22:59:31.075Z,86.80
2022-09-20T23:02:33.304Z,86.50
2022-09-20T23:05:38.985Z,86.00
2022-09-20T23:08:41.895Z,85.70
2022-09-20T23:11:44.583Z,85.50
2022-09-20T23:14:46.590Z,85.60
2022-09-20T23:17:48.628Z,85.50
2022-09-20T23:21:01.322Z,85.70
2022-09-20T23:24:06.108Z,85.60
2022-09-20T23:27:08.197Z,85.30
2022-09-20T23:30:10.601Z,85.70
2022-09-20T23:33:12.621Z,86.10
2022-09-20T23:36:15.871Z,87.60
2022-09-20T23:39:20.384Z,87.00
2022-09-20T23:42:22.472Z,87.10
2022-09-20T23:45:24.526Z,87.50
2022-09-20T23:48:26.923Z,87.10
2022-09-20T23:51:29.568Z,86.90
2022-09-20T23:54:31.573Z,86.40
2022-09-20T23:57:33.552Z,86.40
